sensor_id;sensor_type;location;lat;lon;timestamp;pressure;altitude;pressure_sealevel;temperature;humidity
46714;BME280;32445;51.376;10.874;2023-08-17T00:02:40;99760.22;;;25.22;52.03
46714;BME280;32445;51.376;10.874;2023-08-17T00:05:41;99765.41;;;25.24;51.36
46714;BME280;32445;51.376;10.874;2023-08-17T00:08:42;99764.56;;;25.24;51.52
46714;BME280;32445;51.376;10.874;2023-08-17T00:11:42;99773.63;;;25.21;51.48
46714;BME280;32445;51.376;10.874;2023-08-17T00:14:42;99759.75;;;25.17;51.96
46714;BME280;32445;51.376;10.874;2023-08-17T00:17:43;99753.72;;;25.15;51.92
46714;BME280;32445;51.376;10.874;2023-08-17T00:20:43;99754.94;;;25.11;52.04
46714;BME280;32445;51.376;10.874;2023-08-17T00:23:44;99765.72;;;25.10;52.18
46714;BME280;32445;51.376;10.874;2023-08-17T00:26:44;99765.00;;;25.08;52.49
46714;BME280;32445;51.376;10.874;2023-08-17T00:29:45;99765.13;;;25.06;52.61
46714;BME280;32445;51.376;10.874;2023-08-17T00:32:45;99760.91;;;25.03;52.62
46714;BME280;32445;51.376;10.874;2023-08-17T00:35:45;99736.41;;;25.00;52.60
46714;BME280;32445;51.376;10.874;2023-08-17T00:38:46;99734.00;;;24.97;52.22
46714;BME280;32445;51.376;10.874;2023-08-17T00:41:46;99743.06;;;24.94;52.31
46714;BME280;32445;51.376;10.874;2023-08-17T00:44:47;99734.28;;;24.94;52.25
46714;BME280;32445;51.376;10.874;2023-08-17T00:47:47;99725.69;;;24.90;52.45
46714;BME280;32445;51.376;10.874;2023-08-17T00:50:48;99735.63;;;24.88;52.60
46714;BME280;32445;51.376;10.874;2023-08-17T00:53:57;99727.06;;;24.84;52.75
46714;BME280;32445;51.376;10.874;2023-08-17T00:56:58;99733.34;;;24.83;52.95
46714;BME280;32445;51.376;10.874;2023-08-17T01:00:00;99731.78;;;24.81;53.02
46714;BME280;32445;51.376;10.874;2023-08-17T01:03:00;99728.44;;;24.79;53.04
46714;BME280;32445;51.376;10.874;2023-08-17T01:06:01;99721.56;;;24.76;53.11
46714;BME280;32445;51.376;10.874;2023-08-17T01:09:02;99721.69;;;24.75;52.97
46714;BME280;32445;51.376;10.874;2023-08-17T01:12:20;99730.00;;;24.70;53.45
46714;BME280;32445;51.376;10.874;2023-08-17T01:15:28;99716.84;;;24.68;53.25
46714;BME280;32445;51.376;10.874;2023-08-17T01:18:34;99724.13;;;24.66;53.47
46714;BME280;32445;51.376;10.874;2023-08-17T01:21:42;99716.41;;;24.63;53.79
46714;BME280;32445;51.376;10.874;2023-08-17T01:24:43;99721.84;;;24.62;53.50
46714;BME280;32445;51.376;10.874;2023-08-17T01:27:45;99710.50;;;24.60;53.46
46714;BME280;32445;51.376;10.874;2023-08-17T01:31:05;99711.66;;;24.56;53.67
46714;BME280;32445;51.376;10.874;2023-08-17T01:34:12;99715.31;;;24.55;53.68
46714;BME280;32445;51.376;10.874;2023-08-17T01:37:19;99704.81;;;24.53;53.78
46714;BME280;32445;51.376;10.874;2023-08-17T01:40:21;99700.47;;;24.52;53.86
46714;BME280;32445;51.376;10.874;2023-08-17T01:43:23;99687.47;;;24.49;53.83
46714;BME280;32445;51.376;10.874;2023-08-17T01:46:30;99681.44;;;24.47;54.06
46714;BME280;32445;51.376;10.874;2023-08-17T01:49:30;99679.75;;;24.46;53.85
46714;BME280;32445;51.376;10.874;2023-08-17T01:52:31;99671.06;;;24.44;53.95
46714;BME280;32445;51.376;10.874;2023-08-17T01:55:31;99672.16;;;24.41;53.95
46714;BME280;32445;51.376;10.874;2023-08-17T01:58:32;99661.66;;;24.40;54.07
46714;BME280;32445;51.376;10.874;2023-08-17T02:01:32;99669.75;;;24.38;53.92
46714;BME280;32445;51.376;10.874;2023-08-17T02:04:32;99679.78;;;24.34;53.89
46714;BME280;32445;51.376;10.874;2023-08-17T02:07:33;99687.13;;;24.31;53.88
46714;BME280;32445;51.376;10.874;2023-08-17T02:10:33;99681.25;;;24.27;53.85
46714;BME280;32445;51.376;10.874;2023-08-17T02:13:33;99672.81;;;24.22;54.00
46714;BME280;32445;51.376;10.874;2023-08-17T02:16:34;99670.16;;;24.22;54.56
46714;BME280;32445;51.376;10.874;2023-08-17T02:19:34;99649.78;;;24.23;54.13
46714;BME280;32445;51.376;10.874;2023-08-17T02:22:34;99658.84;;;24.20;54.02
46714;BME280;32445;51.376;10.874;2023-08-17T02:25:38;99627.13;;;24.18;54.45
46714;BME280;32445;51.376;10.874;2023-08-17T02:28:38;99620.97;;;24.18;54.28
46714;BME280;32445;51.376;10.874;2023-08-17T02:31:39;99606.03;;;24.17;54.35
46714;BME280;32445;51.376;10.874;2023-08-17T02:34:39;99619.41;;;24.15;54.01
46714;BME280;32445;51.376;10.874;2023-08-17T02:37:39;99611.59;;;24.14;54.35
46714;BME280;32445;51.376;10.874;2023-08-17T02:40:40;99613.53;;;24.12;54.74
46714;BME280;32445;51.376;10.874;2023-08-17T02:43:40;99611.84;;;24.11;54.82
46714;BME280;32445;51.376;10.874;2023-08-17T02:46:40;99616.44;;;24.09;54.70
46714;BME280;32445;51.376;10.874;2023-08-17T02:49:41;99625.34;;;24.08;54.56
46714;BME280;32445;51.376;10.874;2023-08-17T02:52:42;99619.44;;;24.04;54.70
46714;BME280;32445;51.376;10.874;2023-08-17T02:55:42;99618.47;;;24.05;54.20
46714;BME280;32445;51.376;10.874;2023-08-17T02:58:43;99612.34;;;24.05;53.93
46714;BME280;32445;51.376;10.874;2023-08-17T03:01:44;99606.44;;;24.01;54.41
46714;BME280;32445;51.376;10.874;2023-08-17T03:04:45;99612.00;;;23.98;54.70
46714;BME280;32445;51.376;10.874;2023-08-17T03:07:45;99605.00;;;23.97;54.76
46714;BME280;32445;51.376;10.874;2023-08-17T03:10:47;99597.16;;;23.95;54.87
46714;BME280;32445;51.376;10.874;2023-08-17T03:13:47;99598.16;;;23.94;54.95
46714;BME280;32445;51.376;10.874;2023-08-17T03:16:48;99600.94;;;23.93;55.00
46714;BME280;32445;51.376;10.874;2023-08-17T03:19:49;99601.03;;;23.91;55.07
46714;BME280;32445;51.376;10.874;2023-08-17T03:22:49;99610.22;;;23.87;54.89
46714;BME280;32445;51.376;10.874;2023-08-17T03:25:53;99605.09;;;23.84;55.35
46714;BME280;32445;51.376;10.874;2023-08-17T03:28:54;99599.94;;;23.82;55.24
46714;BME280;32445;51.376;10.874;2023-08-17T03:31:54;99607.06;;;23.82;55.21
46714;BME280;32445;51.376;10.874;2023-08-17T03:34:54;99608.88;;;23.81;55.03
46714;BME280;32445;51.376;10.874;2023-08-17T03:37:55;99607.66;;;23.74;55.27
46714;BME280;32445;51.376;10.874;2023-08-17T03:40:55;99614.06;;;23.72;55.32
46714;BME280;32445;51.376;10.874;2023-08-17T03:43:55;99617.91;;;23.67;55.34
46714;BME280;32445;51.376;10.874;2023-08-17T03:46:56;99618.16;;;23.64;55.47
46714;BME280;32445;51.376;10.874;2023-08-17T03:49:56;99621.75;;;23.63;55.45
46714;BME280;32445;51.376;10.874;2023-08-17T03:52:56;99628.88;;;23.63;55.54
46714;BME280;32445;51.376;10.874;2023-08-17T03:55:57;99624.66;;;23.60;55.55
46714;BME280;32445;51.376;10.874;2023-08-17T03:58:57;99629.94;;;23.60;55.55
46714;BME280;32445;51.376;10.874;2023-08-17T04:01:58;99628.25;;;23.59;55.57
46714;BME280;32445;51.376;10.874;2023-08-17T04:04:58;99626.47;;;23.60;55.82
46714;BME280;32445;51.376;10.874;2023-08-17T04:08:00;99622.13;;;23.59;55.76
46714;BME280;32445;51.376;10.874;2023-08-17T04:11:03;99631.78;;;23.60;55.58
46714;BME280;32445;51.376;10.874;2023-08-17T04:14:03;99633.56;;;23.59;55.56
46714;BME280;32445;51.376;10.874;2023-08-17T04:17:04;99645.13;;;23.58;55.75
46714;BME280;32445;51.376;10.874;2023-08-17T04:20:04;99644.28;;;23.58;55.80
46714;BME280;32445;51.376;10.874;2023-08-17T04:23:05;99643.56;;;23.56;55.55
46714;BME280;32445;51.376;10.874;2023-08-17T04:26:05;99638.28;;;23.56;55.65
46714;BME280;32445;51.376;10.874;2023-08-17T04:29:06;99633.81;;;23.56;55.69
46714;BME280;32445;51.376;10.874;2023-08-17T04:32:06;99638.28;;;23.56;55.76
46714;BME280;32445;51.376;10.874;2023-08-17T04:35:07;99633.81;;;23.56;56.07
46714;BME280;32445;51.376;10.874;2023-08-17T04:38:07;99632.97;;;23.56;55.97
46714;BME280;32445;51.376;10.874;2023-08-17T04:41:08;99634.75;;;23.55;55.74
46714;BME280;32445;51.376;10.874;2023-08-17T04:44:08;99630.31;;;23.56;56.03
46714;BME280;32445;51.376;10.874;2023-08-17T04:47:09;99632.13;;;23.55;55.95
46714;BME280;32445;51.376;10.874;2023-08-17T04:50:09;99639.09;;;23.56;55.84
46714;BME280;32445;51.376;10.874;2023-08-17T04:53:10;99637.28;;;23.57;56.09
46714;BME280;32445;51.376;10.874;2023-08-17T04:56:10;99643.44;;;23.57;56.07
46714;BME280;32445;51.376;10.874;2023-08-17T04:59:10;99636.44;;;23.56;56.19
46714;BME280;32445;51.376;10.874;2023-08-17T05:02:11;99639.09;;;23.56;56.22
46714;BME280;32445;51.376;10.874;2023-08-17T05:05:12;99631.03;;;23.58;56.08
46714;BME280;32445;51.376;10.874;2023-08-17T05:08:13;99637.16;;;23.58;56.11
46714;BME280;32445;51.376;10.874;2023-08-17T05:11:14;99631.03;;;23.58;55.94
46714;BME280;32445;51.376;10.874;2023-08-17T05:14:14;99630.91;;;23.59;56.11
46714;BME280;32445;51.376;10.874;2023-08-17T05:17:14;99630.78;;;23.61;55.99
46714;BME280;32445;51.376;10.874;2023-08-17T05:20:15;99641.38;;;23.61;56.24
46714;BME280;32445;51.376;10.874;2023-08-17T05:23:15;99642.25;;;23.61;56.17
46714;BME280;32445;51.376;10.874;2023-08-17T05:26:16;99633.31;;;23.62;55.73
46714;BME280;32445;51.376;10.874;2023-08-17T05:29:16;99631.66;;;23.61;56.15
46714;BME280;32445;51.376;10.874;2023-08-17T05:32:17;99633.31;;;23.62;56.17
46714;BME280;32445;51.376;10.874;2023-08-17T05:35:17;99637.78;;;23.62;56.66
46714;BME280;32445;51.376;10.874;2023-08-17T05:38:18;99643.91;;;23.62;56.79
46714;BME280;32445;51.376;10.874;2023-08-17T05:41:18;99652.72;;;23.63;56.45
46714;BME280;32445;51.376;10.874;2023-08-17T05:44:18;99657.91;;;23.64;56.44
46714;BME280;32445;51.376;10.874;2023-08-17T05:47:18;99651.63;;;23.65;56.59
46714;BME280;32445;51.376;10.874;2023-08-17T05:50:19;99655.84;;;23.68;56.71
46714;BME280;32445;51.376;10.874;2023-08-17T05:53:20;99658.25;;;23.71;56.76
46714;BME280;32445;51.376;10.874;2023-08-17T05:56:20;99657.28;;;23.72;56.55
46714;BME280;32445;51.376;10.874;2023-08-17T05:59:20;99661.38;;;23.76;56.46
46714;BME280;32445;51.376;10.874;2023-08-17T06:02:21;99662.97;;;23.79;56.45
46714;BME280;32445;51.376;10.874;2023-08-17T06:05:23;99655.72;;;23.81;56.62
46714;BME280;32445;51.376;10.874;2023-08-17T06:08:25;99667.06;;;23.83;56.77
46714;BME280;32445;51.376;10.874;2023-08-17T06:11:25;99663.28;;;23.85;56.63
46714;BME280;32445;51.376;10.874;2023-08-17T06:14:26;99666.72;;;23.88;56.73
46714;BME280;32445;51.376;10.874;2023-08-17T06:17:26;99669.94;;;23.91;56.53
46714;BME280;32445;51.376;10.874;2023-08-17T06:20:27;99670.69;;;23.93;56.45
46714;BME280;32445;51.376;10.874;2023-08-17T06:23:27;99669.59;;;23.96;56.22
46714;BME280;32445;51.376;10.874;2023-08-17T06:26:27;99666.97;;;23.96;55.83
46714;BME280;32445;51.376;10.874;2023-08-17T06:29:28;99668.63;;;23.97;55.76
46714;BME280;32445;51.376;10.874;2023-08-17T06:32:29;99669.47;;;23.97;55.68
46714;BME280;32445;51.376;10.874;2023-08-17T06:35:30;99667.66;;;23.98;55.95
46714;BME280;32445;51.376;10.874;2023-08-17T06:38:30;99663.19;;;23.98;56.07
46714;BME280;32445;51.376;10.874;2023-08-17T06:41:30;99661.16;;;24.02;55.97
46714;BME280;32445;51.376;10.874;2023-08-17T06:44:31;99661.78;;;24.06;56.12
46714;BME280;32445;51.376;10.874;2023-08-17T06:47:31;99665.97;;;24.08;56.07
46714;BME280;32445;51.376;10.874;2023-08-17T06:50:35;99671.13;;;24.10;56.16
46714;BME280;32445;51.376;10.874;2023-08-17T06:53:35;99670.91;;;24.13;56.05
46714;BME280;32445;51.376;10.874;2023-08-17T06:56:35;99664.63;;;24.14;55.95
46714;BME280;32445;51.376;10.874;2023-08-17T06:59:36;99666.19;;;24.16;55.83
46714;BME280;32445;51.376;10.874;2023-08-17T07:02:36;99668.72;;;24.18;55.83
46714;BME280;32445;51.376;10.874;2023-08-17T07:05:37;99674.75;;;24.20;55.83
46714;BME280;32445;51.376;10.874;2023-08-17T07:08:37;99680.78;;;24.22;55.90
46714;BME280;32445;51.376;10.874;2023-08-17T07:11:38;99674.38;;;24.25;55.97
46714;BME280;32445;51.376;10.874;2023-08-17T07:14:42;99677.88;;;24.25;55.92
46714;BME280;32445;51.376;10.874;2023-08-17T07:17:42;99682.22;;;24.26;56.07
46714;BME280;32445;51.376;10.874;2023-08-17T07:20:42;99677.75;;;24.27;56.11
46714;BME280;32445;51.376;10.874;2023-08-17T07:23:45;99677.75;;;24.27;56.25
46714;BME280;32445;51.376;10.874;2023-08-17T07:26:46;99680.13;;;24.30;56.34
46714;BME280;32445;51.376;10.874;2023-08-17T07:29:46;99671.22;;;24.31;56.34
46714;BME280;32445;51.376;10.874;2023-08-17T07:32:49;99679.66;;;24.36;56.06
46714;BME280;32445;51.376;10.874;2023-08-17T07:35:49;99683.50;;;24.43;56.50
46714;BME280;32445;51.376;10.874;2023-08-17T07:38:49;99682.75;;;24.52;56.26
46714;BME280;32445;51.376;10.874;2023-08-17T07:41:50;99692.78;;;24.60;56.04
46714;BME280;32445;51.376;10.874;2023-08-17T07:44:50;99692.97;;;24.68;55.85
46714;BME280;32445;51.376;10.874;2023-08-17T07:47:51;99690.78;;;24.74;55.43
46714;BME280;32445;51.376;10.874;2023-08-17T07:50:52;99694.75;;;24.79;55.44
46714;BME280;32445;51.376;10.874;2023-08-17T07:53:52;99691.84;;;24.82;55.22
46714;BME280;32445;51.376;10.874;2023-08-17T07:56:58;99690.47;;;24.88;55.56
46714;BME280;32445;51.376;10.874;2023-08-17T08:00:01;99691.91;;;24.92;55.54
46714;BME280;32445;51.376;10.874;2023-08-17T08:03:01;99687.03;;;24.97;55.57
46714;BME280;32445;51.376;10.874;2023-08-17T08:06:02;99677.63;;;25.04;55.55
46714;BME280;32445;51.376;10.874;2023-08-17T08:09:05;99680.59;;;25.11;55.21
46714;BME280;32445;51.376;10.874;2023-08-17T08:12:06;99676.56;;;25.17;55.22
46714;BME280;32445;51.376;10.874;2023-08-17T08:15:10;99680.53;;;25.22;55.01
46714;BME280;32445;51.376;10.874;2023-08-17T08:18:10;99685.31;;;25.29;54.63
46714;BME280;32445;51.376;10.874;2023-08-17T08:21:10;99680.63;;;25.32;54.60
46714;BME280;32445;51.376;10.874;2023-08-17T08:24:11;99688.19;;;25.37;54.27
46714;BME280;32445;51.376;10.874;2023-08-17T08:27:56;99686.25;;;25.39;54.71
46714;BME280;32445;51.376;10.874;2023-08-17T08:31:01;99688.38;;;25.45;54.17
46714;BME280;32445;51.376;10.874;2023-08-17T08:34:04;99703.22;;;25.48;54.29
46714;BME280;32445;51.376;10.874;2023-08-17T08:37:08;99694.41;;;25.47;54.49
46714;BME280;32445;51.376;10.874;2023-08-17T08:40:12;99694.13;;;25.50;54.44
46714;BME280;32445;51.376;10.874;2023-08-17T08:43:20;99695.41;;;25.56;54.58
46714;BME280;32445;51.376;10.874;2023-08-17T08:47:07;99695.88;;;25.61;54.30
46714;BME280;32445;51.376;10.874;2023-08-17T08:50:17;99700.78;;;25.66;54.10
46714;BME280;32445;51.376;10.874;2023-08-17T08:53:50;99695.94;;;25.71;53.79
46714;BME280;32445;51.376;10.874;2023-08-17T08:57:03;99693.97;;;25.73;53.93
46714;BME280;32445;51.376;10.874;2023-08-17T09:00:55;99695.38;;;25.77;54.30
46714;BME280;32445;51.376;10.874;2023-08-17T09:04:00;99689.53;;;25.83;53.94
46714;BME280;32445;51.376;10.874;2023-08-17T09:07:01;99684.38;;;25.91;53.85
46714;BME280;32445;51.376;10.874;2023-08-17T09:10:14;99681.91;;;26.00;54.37
46714;BME280;32445;51.376;10.874;2023-08-17T09:13:16;99678.63;;;26.17;53.37
46714;BME280;32445;51.376;10.874;2023-08-17T09:16:23;99675.16;;;26.27;52.93
46714;BME280;32445;51.376;10.874;2023-08-17T09:19:23;99682.75;;;26.41;53.01
46714;BME280;32445;51.376;10.874;2023-08-17T09:22:37;99683.31;;;26.54;52.78
46714;BME280;32445;51.376;10.874;2023-08-17T09:25:46;99686.81;;;26.65;52.22
46714;BME280;32445;51.376;10.874;2023-08-17T09:28:52;99678.03;;;26.74;51.92
46714;BME280;32445;51.376;10.874;2023-08-17T09:31:57;99685.31;;;26.82;52.03
46714;BME280;32445;51.376;10.874;2023-08-17T09:35:12;99677.59;;;26.88;51.73
46714;BME280;32445;51.376;10.874;2023-08-17T09:38:13;99674.50;;;26.93;51.00
46714;BME280;32445;51.376;10.874;2023-08-17T09:41:13;99674.22;;;26.96;51.45
46714;BME280;32445;51.376;10.874;2023-08-17T09:44:14;99673.78;;;27.01;51.62
46714;BME280;32445;51.376;10.874;2023-08-17T09:47:17;99674.38;;;27.04;51.60
46714;BME280;32445;51.376;10.874;2023-08-17T09:50:23;99680.81;;;27.11;51.39
46714;BME280;32445;51.376;10.874;2023-08-17T09:53:25;99664.94;;;27.20;51.51
46714;BME280;32445;51.376;10.874;2023-08-17T09:56:26;99670.53;;;27.26;51.10
46714;BME280;32445;51.376;10.874;2023-08-17T09:59:27;99669.84;;;27.34;50.66
46714;BME280;32445;51.376;10.874;2023-08-17T10:02:28;99672.91;;;27.39;50.69
46714;BME280;32445;51.376;10.874;2023-08-17T10:05:35;99660.00;;;27.44;50.70
46714;BME280;32445;51.376;10.874;2023-08-17T10:08:49;99664.06;;;27.49;50.83
46714;BME280;32445;51.376;10.874;2023-08-17T10:11:52;99660.94;;;27.53;50.46
46714;BME280;32445;51.376;10.874;2023-08-17T10:15:02;99663.16;;;27.58;50.63
46714;BME280;32445;51.376;10.874;2023-08-17T10:18:13;99660.09;;;27.62;50.61
46714;BME280;32445;51.376;10.874;2023-08-17T10:21:23;99671.13;;;27.68;50.63
46714;BME280;32445;51.376;10.874;2023-08-17T10:24:26;99669.84;;;27.72;50.26
46714;BME280;32445;51.376;10.874;2023-08-17T10:27:27;99676.72;;;27.74;50.30
46714;BME280;32445;51.376;10.874;2023-08-17T10:30:27;99669.41;;;27.76;50.22
46714;BME280;32445;51.376;10.874;2023-08-17T10:33:28;99666.44;;;27.79;50.11
46714;BME280;32445;51.376;10.874;2023-08-17T10:36:30;99667.84;;;27.84;50.31
46714;BME280;32445;51.376;10.874;2023-08-17T10:39:31;99662.06;;;27.88;49.98
46714;BME280;32445;51.376;10.874;2023-08-17T10:42:35;99666.97;;;27.93;49.22
46714;BME280;32445;51.376;10.874;2023-08-17T10:45:36;99662.75;;;28.00;49.42
46714;BME280;32445;51.376;10.874;2023-08-17T10:48:38;99667.31;;;28.08;49.75
46714;BME280;32445;51.376;10.874;2023-08-17T10:51:39;99665.59;;;28.17;49.34
46714;BME280;32445;51.376;10.874;2023-08-17T10:54:47;99673.00;;;28.23;49.53
46714;BME280;32445;51.376;10.874;2023-08-17T10:57:51;99668.91;;;28.28;49.42
46714;BME280;32445;51.376;10.874;2023-08-17T11:00:55;99668.28;;;28.35;49.51
46714;BME280;32445;51.376;10.874;2023-08-17T11:04:16;99668.66;;;28.40;49.07
46714;BME280;32445;51.376;10.874;2023-08-17T11:07:17;99659.03;;;28.47;49.25
46714;BME280;32445;51.376;10.874;2023-08-17T11:13:27;99664.75;;;28.62;48.91
46714;BME280;32445;51.376;10.874;2023-08-17T11:16:27;99657.13;;;28.67;48.97
46714;BME280;32445;51.376;10.874;2023-08-17T11:19:28;99653.13;;;28.71;49.31
46714;BME280;32445;51.376;10.874;2023-08-17T11:22:28;99649.00;;;28.77;49.13
46714;BME280;32445;51.376;10.874;2023-08-17T11:25:29;99647.69;;;28.81;48.22
46714;BME280;32445;51.376;10.874;2023-08-17T11:28:29;99647.22;;;28.86;48.61
46714;BME280;32445;51.376;10.874;2023-08-17T11:31:33;99647.47;;;28.92;48.27
46714;BME280;32445;51.376;10.874;2023-08-17T11:34:35;99648.66;;;28.98;47.27
46714;BME280;32445;51.376;10.874;2023-08-17T11:37:36;99640.97;;;28.95;47.09
46714;BME280;32445;51.376;10.874;2023-08-17T11:40:36;99643.66;;;28.95;46.80
46714;BME280;32445;51.376;10.874;2023-08-17T11:43:37;99647.06;;;29.05;47.33
46714;BME280;32445;51.376;10.874;2023-08-17T11:46:37;99646.78;;;29.16;47.38
46714;BME280;32445;51.376;10.874;2023-08-17T11:49:38;99653.59;;;29.29;47.54
46714;BME280;32445;51.376;10.874;2023-08-17T11:52:38;99639.81;;;29.42;46.99
46714;BME280;32445;51.376;10.874;2023-08-17T11:55:39;99645.00;;;29.51;46.95
46714;BME280;32445;51.376;10.874;2023-08-17T11:58:43;99643.69;;;29.56;46.59
46714;BME280;32445;51.376;10.874;2023-08-17T12:01:45;99644.41;;;29.58;46.34
46714;BME280;32445;51.376;10.874;2023-08-17T12:04:45;99643.91;;;29.62;46.84
46714;BME280;32445;51.376;10.874;2023-08-17T12:07:46;99639.09;;;29.66;46.95
46714;BME280;32445;51.376;10.874;2023-08-17T12:10:46;99643.09;;;29.70;47.16
46714;BME280;32445;51.376;10.874;2023-08-17T12:13:53;99649.63;;;29.76;46.81
46714;BME280;32445;51.376;10.874;2023-08-17T12:16:54;99648.50;;;29.78;46.83
46714;BME280;32445;51.376;10.874;2023-08-17T12:19:55;99645.34;;;29.83;46.38
46714;BME280;32445;51.376;10.874;2023-08-17T12:22:57;99640.53;;;29.87;46.56
46714;BME280;32445;51.376;10.874;2023-08-17T12:25:57;99637.38;;;29.91;45.16
46714;BME280;32445;51.376;10.874;2023-08-17T12:28:57;99637.69;;;29.88;45.96
46714;BME280;32445;51.376;10.874;2023-08-17T12:32:00;99630.53;;;29.97;45.88
46714;BME280;32445;51.376;10.874;2023-08-17T12:35:01;99634.38;;;30.02;46.02
46714;BME280;32445;51.376;10.874;2023-08-17T12:38:02;99624.38;;;30.13;46.25
46714;BME280;32445;51.376;10.874;2023-08-17T12:41:02;99627.72;;;30.23;46.14
46714;BME280;32445;51.376;10.874;2023-08-17T12:44:02;99631.13;;;30.33;46.03
46714;BME280;32445;51.376;10.874;2023-08-17T12:47:03;99622.94;;;30.43;46.13
46714;BME280;32445;51.376;10.874;2023-08-17T12:50:03;99624.63;;;30.52;46.17
46714;BME280;32445;51.376;10.874;2023-08-17T12:53:04;99610.91;;;30.64;45.89
46714;BME280;32445;51.376;10.874;2023-08-17T12:56:04;99615.25;;;30.73;46.07
46714;BME280;32445;51.376;10.874;2023-08-17T12:59:04;99615.78;;;30.85;45.23
46714;BME280;32445;51.376;10.874;2023-08-17T13:02:05;99605.19;;;31.00;44.49
46714;BME280;32445;51.376;10.874;2023-08-17T13:05:05;99610.03;;;31.21;45.37
46714;BME280;32445;51.376;10.874;2023-08-17T13:08:06;99602.72;;;31.46;45.31
46714;BME280;32445;51.376;10.874;2023-08-17T13:11:06;99603.00;;;31.68;45.08
46714;BME280;32445;51.376;10.874;2023-08-17T13:14:06;99601.75;;;31.87;42.92
46714;BME280;32445;51.376;10.874;2023-08-17T13:17:07;99594.13;;;31.99;42.98
46714;BME280;32445;51.376;10.874;2023-08-17T13:20:08;99597.06;;;32.12;42.45
46714;BME280;32445;51.376;10.874;2023-08-17T13:23:10;99593.72;;;32.18;41.49
46714;BME280;32445;51.376;10.874;2023-08-17T13:26:10;99591.50;;;32.22;41.16
46714;BME280;32445;51.376;10.874;2023-08-17T13:29:11;99588.03;;;32.36;41.35
46714;BME280;32445;51.376;10.874;2023-08-17T13:32:11;99584.59;;;32.42;40.62
46714;BME280;32445;51.376;10.874;2023-08-17T13:35:11;99590.09;;;32.49;40.82
46714;BME280;32445;51.376;10.874;2023-08-17T13:38:12;99575.88;;;32.64;40.62
46714;BME280;32445;51.376;10.874;2023-08-17T13:41:13;99571.22;;;32.81;39.81
46714;BME280;32445;51.376;10.874;2023-08-17T13:44:13;99577.44;;;32.96;39.86
46714;BME280;32445;51.376;10.874;2023-08-17T13:47:13;99577.25;;;33.12;40.61
46714;BME280;32445;51.376;10.874;2023-08-17T13:50:14;99570.25;;;33.26;39.82
46714;BME280;32445;51.376;10.874;2023-08-17T13:53:14;99573.28;;;33.38;39.77
46714;BME280;32445;51.376;10.874;2023-08-17T13:56:16;99562.97;;;33.57;38.91
46714;BME280;32445;51.376;10.874;2023-08-17T13:59:16;99561.00;;;33.80;37.88
46714;BME280;32445;51.376;10.874;2023-08-17T14:02:18;99567.03;;;34.04;38.71
46714;BME280;32445;51.376;10.874;2023-08-17T14:05:18;99562.16;;;34.29;39.31
46714;BME280;32445;51.376;10.874;2023-08-17T14:08:19;99562.94;;;34.52;39.80
46714;BME280;32445;51.376;10.874;2023-08-17T14:11:20;99564.47;;;34.61;39.21
46714;BME280;32445;51.376;10.874;2023-08-17T14:14:20;99562.88;;;34.66;38.94
46714;BME280;32445;51.376;10.874;2023-08-17T14:17:20;99558.94;;;34.69;39.11
46714;BME280;32445;51.376;10.874;2023-08-17T14:20:21;99554.78;;;34.66;39.09
46714;BME280;32445;51.376;10.874;2023-08-17T14:23:21;99558.69;;;34.64;38.56
46714;BME280;32445;51.376;10.874;2023-08-17T14:26:22;99548.50;;;34.59;38.51
46714;BME280;32445;51.376;10.874;2023-08-17T14:29:22;99564.88;;;34.58;38.74
46714;BME280;32445;51.376;10.874;2023-08-17T14:32:22;99554.91;;;34.58;39.44
46714;BME280;32445;51.376;10.874;2023-08-17T14:35:23;99560.97;;;34.60;38.99
46714;BME280;32445;51.376;10.874;2023-08-17T14:38:23;99563.28;;;34.70;39.67
46714;BME280;32445;51.376;10.874;2023-08-17T14:41:24;99569.91;;;34.89;39.36
46714;BME280;32445;51.376;10.874;2023-08-17T14:44:31;99564.84;;;35.08;39.45
46714;BME280;32445;51.376;10.874;2023-08-17T14:47:31;99562.00;;;35.23;38.91
46714;BME280;32445;51.376;10.874;2023-08-17T14:50:31;99572.47;;;35.39;37.99
46714;BME280;32445;51.376;10.874;2023-08-17T14:53:32;99571.69;;;35.45;38.53
46714;BME280;32445;51.376;10.874;2023-08-17T14:56:32;99570.66;;;35.46;37.59
46714;BME280;32445;51.376;10.874;2023-08-17T14:59:33;99563.59;;;35.45;37.52
46714;BME280;32445;51.376;10.874;2023-08-17T15:02:33;99559.47;;;35.49;37.80
46714;BME280;32445;51.376;10.874;2023-08-17T15:05:33;99547.84;;;35.56;39.17
46714;BME280;32445;51.376;10.874;2023-08-17T15:08:36;99542.88;;;35.66;36.86
46714;BME280;32445;51.376;10.874;2023-08-17T15:11:36;99535.22;;;35.76;37.44
46714;BME280;32445;51.376;10.874;2023-08-17T15:14:36;99526.97;;;35.84;36.74
46714;BME280;32445;51.376;10.874;2023-08-17T15:17:37;99530.09;;;35.95;37.18
46714;BME280;32445;51.376;10.874;2023-08-17T15:20:37;99524.31;;;36.05;36.90
46714;BME280;32445;51.376;10.874;2023-08-17T15:23:37;99524.31;;;36.11;36.96
46714;BME280;32445;51.376;10.874;2023-08-17T15:26:38;99524.13;;;36.19;36.62
46714;BME280;32445;51.376;10.874;2023-08-17T15:29:39;99523.06;;;36.27;37.33
46714;BME280;32445;51.376;10.874;2023-08-17T15:32:42;99528.53;;;36.34;35.71
46714;BME280;32445;51.376;10.874;2023-08-17T15:35:42;99526.63;;;36.34;33.96
46714;BME280;32445;51.376;10.874;2023-08-17T15:38:42;99521.22;;;36.21;34.94
46714;BME280;32445;51.376;10.874;2023-08-17T15:41:43;99523.06;;;36.20;34.78
46714;BME280;32445;51.376;10.874;2023-08-17T15:44:43;99528.03;;;36.24;35.83
46714;BME280;32445;51.376;10.874;2023-08-17T15:47:44;99532.47;;;36.31;36.40
46714;BME280;32445;51.376;10.874;2023-08-17T15:50:44;99535.34;;;36.36;34.60
46714;BME280;32445;51.376;10.874;2023-08-17T15:53:45;99532.44;;;36.38;35.31
46714;BME280;32445;51.376;10.874;2023-08-17T15:56:45;99535.56;;;36.42;35.37